Unionville, Tennessee
Current Conditions -  °F | °C
As of 9:55 AM on Sunday 23 Nov 2014 (Local Time) from KSYI Reporting Station
Overcast Overcast  
Wind Chill: 57°   Ceiling: 1500
Heat Index: 57°   Visibility: 1.5mi
Dew Point: 55°   Wind: 12mph
Humidity: 94%   Direction: 140°SE
Pressure: 29.84"   Gusts: NA
Location:  35.62°N, 86.59°W
Report Text: KSYI 231555Z AUTO 14010KT 1 1/2SM SCT006 BKN015 OVC024 14/13 A2984 RMK
Loading
Personal Weather Stations






























Interactive Weather Map New forecast layout! Learn more

10-Day Weather Forecast

Advertisements
Track Severe Weather on mobile